Time;durP1;ratioP1;P1;durP2;ratioP2;P2;SDS_P1;SDS_P2;PMS_P1;PMS_P2;Temp;Humidity;BMP_temperature;BMP_pressure;BME280_temperature;BME280_humidity;BME280_pressure;Samples;Min_cycle;Max_cycle;Signal;HPM_P1;HPM_P2
2022/09/24 00:01:23;;;;;;;37.70;32.42;;;14.40;99.90;;;;;;5002753;28;20129;-81
2022/09/24 00:03:52;;;;;;;34.70;29.63;;;14.40;99.90;;;;;;4951779;28;20498;-80
2022/09/24 00:06:19;;;;;;;42.03;36.00;;;14.40;99.90;;;;;;4996724;28;20565;-80
2022/09/24 00:08:46;;;;;;;37.33;33.22;;;14.40;99.90;;;;;;4986560;28;20537;-81
2022/09/24 00:11:12;;;;;;;31.27;27.42;;;14.40;99.90;;;;;;4995555;28;20038;-79
2022/09/24 00:13:39;;;;;;;34.67;30.40;;;14.40;99.90;;;;;;5017449;28;21487;-81
2022/09/24 00:16:08;;;;;;;45.35;35.65;;;14.50;99.90;;;;;;4976417;28;20038;-81
2022/09/24 00:18:34;;;;;;;40.20;32.10;;;14.50;99.90;;;;;;4989470;28;20042;-79
2022/09/24 00:21:09;;;;;;;41.80;36.00;;;14.40;99.90;;;;;;4976524;28;20038;-80
2022/09/24 00:23:35;;;;;;;35.80;31.45;;;14.40;99.90;;;;;;4988284;28;20240;-81
2022/09/24 00:27:01;;;;;;;39.83;34.80;;;14.40;99.90;;;;;;4988243;28;20227;-81
2022/09/24 00:28:56;;;;;;;28.02;24.98;;;14.40;99.90;;;;;;5014056;28;20038;-80
2022/09/24 00:31:21;;;;;;;50.08;39.75;;;14.40;99.90;;;;;;5009278;28;20046;-80
2022/09/24 00:33:50;;;;;;;47.25;38.38;;;14.40;99.90;;;;;;4991405;28;20133;-81
2022/09/24 00:36:18;;;;;;;48.90;39.42;;;14.40;99.90;;;;;;4975437;28;20073;-81
2022/09/24 00:38:43;;;;;;;51.03;40.72;;;14.50;99.90;;;;;;4993720;28;20049;-80
2022/09/24 00:41:09;;;;;;;44.72;37.08;;;14.50;99.90;;;;;;5027291;22;20026;-61
2022/09/24 00:43:37;;;;;;;52.47;44.15;;;14.40;99.90;;;;;;5010299;28;20096;-61
2022/09/24 00:46:12;;;;;;;49.72;40.30;;;14.50;99.90;;;;;;5021270;28;20559;-61
2022/09/24 00:48:39;;;;;;;51.63;41.50;;;14.50;99.90;;;;;;5027275;28;20391;-61
2022/09/24 00:51:07;;;;;;;50.03;40.70;;;14.50;99.90;;;;;;5028183;28;20041;-61
2022/09/24 00:53:33;;;;;;;59.00;46.30;;;14.40;99.90;;;;;;5014548;28;20050;-62
2022/09/24 00:56:02;;;;;;;50.20;41.38;;;14.40;99.90;;;;;;5018066;28;20037;-61
2022/09/24 00:58:30;;;;;;;62.70;49.85;;;14.40;99.90;;;;;;5012880;28;20069;-61
2022/09/24 01:01:06;;;;;;;52.38;42.75;;;14.40;99.90;;;;;;5017107;28;20049;-61
2022/09/24 01:03:41;;;;;;;45.78;40.00;;;14.40;99.90;;;;;;4994409;28;20060;-61
2022/09/24 01:06:10;;;;;;;59.55;47.28;;;14.40;99.90;;;;;;5005218;28;20045;-61
2022/09/24 01:08:36;;;;;;;66.07;51.70;;;14.40;99.90;;;;;;5006276;28;20617;-61
2022/09/24 01:11:55;;;;;;;56.80;47.65;;;14.40;99.90;;;;;;5004837;28;20053;-61
2022/09/24 01:14:42;;;;;;;50.28;39.88;;;14.40;99.90;;;;;;4934343;28;20744;-62
2022/09/24 01:17:20;;;;;;;67.35;50.42;;;14.40;99.90;;;;;;5003758;28;20033;-62
2022/09/24 01:20:04;;;;;;;62.30;47.58;;;14.40;99.90;;;;;;5013068;28;20076;-62
2022/09/24 01:23:02;;;;;;;58.63;45.90;;;14.40;99.90;;;;;;4987673;28;20048;-61
2022/09/24 01:25:40;;;;;;;58.35;45.67;;;14.40;99.90;;;;;;4996038;28;20138;-61
2022/09/24 01:28:09;;;;;;;75.60;51.40;;;14.40;99.90;;;;;;5000932;28;20116;-61
2022/09/24 01:30:37;;;;;;;68.47;48.45;;;14.40;99.90;;;;;;4989307;28;20045;-61
2022/09/24 01:33:09;;;;;;;52.67;40.47;;;14.40;99.90;;;;;;4987902;28;20041;-61
2022/09/24 01:35:43;;;;;;;61.20;43.50;;;14.40;99.90;;;;;;4984183;28;20038;-61
2022/09/24 01:38:22;;;;;;;56.40;43.58;;;14.40;99.90;;;;;;4993792;28;22895;-61
2022/09/24 01:40:50;;;;;;;43.63;37.88;;;14.40;99.90;;;;;;4982244;28;20041;-61
2022/09/24 01:43:20;;;;;;;50.78;40.80;;;14.40;99.90;;;;;;4997319;28;21974;-62
2022/09/24 01:45:46;;;;;;;46.97;39.25;;;14.40;99.90;;;;;;4991101;28;20112;-61
2022/09/24 01:48:12;;;;;;;43.85;35.88;;;14.40;99.90;;;;;;4988007;28;20033;-62
2022/09/24 01:50:53;;;;;;;51.92;39.53;;;14.50;99.90;;;;;;4987471;28;20085;-61
2022/09/24 01:53:24;;;;;;;46.97;38.42;;;14.50;99.90;;;;;;4988031;28;20404;-61
2022/09/24 01:55:58;;;;;;;49.15;38.92;;;14.50;99.90;;;;;;5002497;28;20041;-61
2022/09/24 01:58:39;;;;;;;53.60;40.60;;;14.50;99.90;;;;;;4989238;28;20049;-62
2022/09/24 02:01:11;;;;;;;56.08;40.65;;;14.50;99.90;;;;;;4996728;28;21099;-62
2022/09/24 02:03:44;;;;;;;45.78;38.13;;;14.50;99.90;;;;;;5005514;28;20033;-62
2022/09/24 02:06:30;;;;;;;44.35;34.28;;;14.50;99.90;;;;;;5000541;28;20429;-62
2022/09/24 02:08:57;;;;;;;56.33;41.90;;;14.50;99.90;;;;;;5013454;28;20514;-62
2022/09/24 02:11:24;;;;;;;56.42;41.22;;;14.50;99.90;;;;;;4996844;28;20104;-63
2022/09/24 02:13:54;;;;;;;48.85;38.58;;;14.50;99.90;;;;;;4991587;28;20409;-62
2022/09/24 02:16:25;;;;;;;67.30;45.63;;;14.50;99.90;;;;;;4997566;28;20123;-62
2022/09/24 02:18:53;;;;;;;38.88;32.08;;;14.50;99.90;;;;;;4981330;28;20118;-62
2022/09/24 02:21:22;;;;;;;47.97;33.28;;;14.50;99.90;;;;;;5008265;28;20107;-62
2022/09/24 02:23:59;;;;;;;33.72;27.38;;;14.50;99.90;;;;;;4995712;28;20286;-62
2022/09/24 02:26:25;;;;;;;32.33;27.00;;;14.50;99.90;;;;;;5011220;28;20543;-62
2022/09/24 02:28:51;;;;;;;34.65;26.85;;;14.50;99.90;;;;;;4997849;28;20585;-62
2022/09/24 02:31:23;;;;;;;37.58;28.27;;;14.50;99.90;;;;;;4989514;28;20041;-61
2022/09/24 02:36:35;;;;;;;42.85;31.70;;;14.50;99.90;;;;;;4992097;28;20057;-61
2022/09/24 02:39:02;;;;;;;44.63;32.50;;;14.50;99.90;;;;;;5011607;28;20060;-61
2022/09/24 02:41:29;;;;;;;46.90;31.25;;;14.50;99.90;;;;;;4995060;28;20149;-61
2022/09/24 02:43:55;;;;;;;35.80;28.38;;;14.50;99.90;;;;;;5008669;28;20052;-62
2022/09/24 02:46:21;;;;;;;41.63;28.40;;;14.50;99.90;;;;;;4989729;28;20046;-61
2022/09/24 02:48:46;;;;;;;38.08;27.48;;;14.50;99.90;;;;;;4998287;28;20037;-61
2022/09/24 02:51:12;;;;;;;38.15;27.95;;;14.50;99.90;;;;;;5017539;28;20033;-62
2022/09/24 02:53:38;;;;;;;29.33;23.10;;;14.50;99.90;;;;;;5011510;28;20048;-61
2022/09/24 02:56:05;;;;;;;34.38;24.30;;;14.50;99.90;;;;;;5018019;28;20037;-61
2022/09/24 02:58:30;;;;;;;33.53;25.27;;;14.60;99.90;;;;;;5010722;28;20046;-61
2022/09/24 03:00:56;;;;;;;49.05;30.95;;;14.50;99.90;;;;;;5024213;28;20053;-62
2022/09/24 03:03:23;;;;;;;45.28;30.85;;;14.50;99.90;;;;;;4981569;28;20052;-62
2022/09/24 03:05:53;;;;;;;35.65;24.77;;;14.60;99.90;;;;;;5014465;28;20120;-61
2022/09/24 03:08:23;;;;;;;29.92;21.85;;;14.50;99.90;;;;;;5019950;28;20072;-61
2022/09/24 03:10:50;;;;;;;37.53;26.50;;;14.60;99.90;;;;;;5017847;28;20198;-61
2022/09/24 03:13:19;;;;;;;31.73;23.40;;;14.50;99.90;;;;;;4991296;28;20366;-62
2022/09/24 03:15:45;;;;;;;31.33;18.45;;;14.60;99.90;;;;;;5008562;28;20080;-61
2022/09/24 03:18:11;;;;;;;16.08;12.07;;;14.60;99.90;;;;;;5004343;28;20046;-61
2022/09/24 03:20:37;;;;;;;21.23;11.15;;;14.60;99.90;;;;;;4996221;28;20034;-62
2022/09/24 03:23:03;;;;;;;13.13;7.47;;;14.50;99.90;;;;;;4987496;28;20401;-62
2022/09/24 03:25:29;;;;;;;14.88;7.38;;;14.50;99.90;;;;;;4989868;28;20041;-62
2022/09/24 03:27:54;;;;;;;17.75;4.93;;;14.50;99.90;;;;;;4993591;28;20873;-61
2022/09/24 03:33:05;;;;;;;7.47;2.50;;;14.50;99.90;;;;;;4996140;28;20042;-62
2022/09/24 03:35:31;;;;;;;11.05;2.35;;;14.50;99.90;;;;;;4990117;28;20073;-61
2022/09/24 03:37:56;;;;;;;9.68;2.80;;;14.50;99.90;;;;;;5005568;28;20040;-62
2022/09/24 03:40:23;;;;;;;7.57;3.05;;;14.50;99.90;;;;;;5006656;28;20135;-61
2022/09/24 03:42:48;;;;;;;7.53;2.75;;;14.40;99.90;;;;;;5006158;28;20107;-61
2022/09/24 03:45:14;;;;;;;15.07;3.92;;;14.40;99.90;;;;;;4990826;28;20041;-61
2022/09/24 03:47:41;;;;;;;7.38;2.33;;;14.40;99.90;;;;;;4988809;28;20301;-62
2022/09/24 03:50:10;;;;;;;15.57;2.40;;;14.40;99.90;;;;;;4995738;28;21395;-62
2022/09/24 03:52:39;;;;;;;14.63;3.70;;;14.40;99.90;;;;;;4992701;28;20073;-62
2022/09/24 03:55:06;;;;;;;12.10;2.20;;;14.40;99.90;;;;;;4986802;28;21390;-62
2022/09/24 03:57:32;;;;;;;10.68;2.60;;;14.40;99.90;;;;;;4995316;28;20038;-62
2022/09/24 03:59:58;;;;;;;8.27;1.77;;;14.40;99.90;;;;;;4991213;28;20233;-62
2022/09/24 04:02:24;;;;;;;9.32;2.10;;;14.40;99.90;;;;;;4994744;28;20042;-62
2022/09/24 04:04:51;;;;;;;9.38;2.08;;;14.40;99.90;;;;;;4996957;28;20025;-62
2022/09/24 04:07:17;;;;;;;8.90;1.90;;;14.40;99.90;;;;;;5009545;28;20042;-62
2022/09/24 04:09:42;;;;;;;9.20;2.20;;;14.40;99.90;;;;;;5007769;28;20103;-62
2022/09/24 04:12:08;;;;;;;10.52;2.28;;;14.30;99.90;;;;;;5011272;28;20038;-62
2022/09/24 04:14:34;;;;;;;7.13;2.53;;;14.30;99.90;;;;;;5009468;28;20485;-62
2022/09/24 04:16:59;;;;;;;7.32;1.85;;;14.30;99.90;;;;;;5007063;28;20388;-62
2022/09/24 04:19:28;;;;;;;8.45;2.10;;;14.30;99.90;;;;;;4999625;28;20467;-62
2022/09/24 04:21:54;;;;;;;9.70;2.42;;;14.30;99.90;;;;;;5011022;28;20626;-63
2022/09/24 04:24:20;;;;;;;6.45;1.77;;;14.30;99.90;;;;;;5010860;28;20065;-61
2022/09/24 04:26:45;;;;;;;7.97;2.40;;;14.20;99.90;;;;;;5005938;28;20044;-61
2022/09/24 04:29:12;;;;;;;9.98;1.67;;;14.20;99.90;;;;;;5009179;28;20033;-61
2022/09/24 04:31:39;;;;;;;9.48;1.85;;;14.20;99.90;;;;;;5010017;28;20497;-61
2022/09/24 04:34:05;;;;;;;11.63;2.17;;;14.20;99.90;;;;;;5008768;28;20053;-61
2022/09/24 04:36:30;;;;;;;8.10;2.10;;;14.20;99.90;;;;;;5018147;28;20041;-61
2022/09/24 04:38:56;;;;;;;7.95;2.38;;;14.20;99.90;;;;;;5021301;28;20077;-61
2022/09/24 04:41:22;;;;;;;10.70;1.63;;;14.10;99.90;;;;;;5016435;28;20046;-61
2022/09/24 04:43:47;;;;;;;8.52;1.50;;;14.10;99.90;;;;;;5020604;28;20057;-61
2022/09/24 04:46:13;;;;;;;6.72;1.70;;;14.10;99.90;;;;;;5018416;28;20044;-61
2022/09/24 04:48:39;;;;;;;8.70;1.83;;;14.10;99.90;;;;;;5001824;28;20041;-61
2022/09/24 04:51:07;;;;;;;11.35;2.35;;;14.10;99.90;;;;;;5019273;28;20037;-62
2022/09/24 04:53:35;;;;;;;9.13;1.80;;;14.00;99.90;;;;;;5013879;28;20068;-61
2022/09/24 04:56:02;;;;;;;6.90;1.77;;;14.00;99.90;;;;;;5013040;28;20029;-61
2022/09/24 04:58:28;;;;;;;6.68;1.90;;;14.00;99.90;;;;;;5015850;28;20045;-62
2022/09/24 05:00:54;;;;;;;10.65;2.13;;;14.00;99.90;;;;;;5019045;28;20520;-61
2022/09/24 05:03:20;;;;;;;7.65;1.70;;;14.00;99.90;;;;;;5006985;28;20045;-61
2022/09/24 05:05:46;;;;;;;6.40;1.73;;;13.90;99.90;;;;;;5011182;28;20029;-61
2022/09/24 05:08:12;;;;;;;7.38;1.40;;;13.90;99.90;;;;;;5013524;28;20076;-61
2022/09/24 05:10:38;;;;;;;10.52;1.70;;;14.00;99.90;;;;;;5006428;28;20129;-62
2022/09/24 05:13:04;;;;;;;7.30;1.52;;;13.90;99.90;;;;;;5004458;28;20057;-61
2022/09/24 05:15:29;;;;;;;9.93;1.60;;;13.90;99.90;;;;;;5006840;28;20045;-61
2022/09/24 05:17:55;;;;;;;7.22;1.80;;;13.90;99.90;;;;;;5008182;28;20044;-61
2022/09/24 05:20:21;;;;;;;8.57;1.58;;;13.90;99.90;;;;;;5005212;28;20052;-61
2022/09/24 05:22:48;;;;;;;6.95;1.80;;;13.90;99.90;;;;;;5009887;28;20044;-61
2022/09/24 05:25:16;;;;;;;6.32;1.55;;;13.90;99.90;;;;;;5011264;28;20030;-62
2022/09/24 05:27:50;;;;;;;11.10;2.33;;;13.90;99.90;;;;;;5010405;28;20064;-61
2022/09/24 05:30:17;;;;;;;7.00;1.50;;;13.90;99.90;;;;;;5004108;28;20450;-61
2022/09/24 05:32:43;;;;;;;5.63;1.85;;;13.80;99.90;;;;;;5008456;28;20043;-61
2022/09/24 05:35:09;;;;;;;11.25;2.55;;;13.80;99.90;;;;;;5009447;28;20038;-61
2022/09/24 05:37:36;;;;;;;9.90;1.70;;;13.80;99.90;;;;;;5013427;28;20080;-61
2022/09/24 05:42:48;;;;;;;7.30;1.50;;;13.80;99.90;;;;;;5006273;28;20049;-61
2022/09/24 05:45:16;;;;;;;6.43;1.40;;;13.80;99.90;;;;;;4998216;28;20697;-61
2022/09/24 05:47:44;;;;;;;7.05;1.33;;;13.80;99.90;;;;;;5002681;28;20061;-61
2022/09/24 05:50:10;;;;;;;8.15;1.80;;;13.80;99.90;;;;;;5022197;28;20389;-61
2022/09/24 05:52:37;;;;;;;5.13;1.60;;;13.80;99.90;;;;;;5019359;28;20076;-61
2022/09/24 05:55:03;;;;;;;7.18;1.58;;;13.80;99.90;;;;;;5011406;28;20130;-61
2022/09/24 05:57:28;;;;;;;8.90;1.63;;;13.80;99.90;;;;;;5020256;28;20041;-61
2022/09/24 05:59:54;;;;;;;7.07;1.40;;;14.20;99.90;;;;;;5021790;28;20045;-61
2022/09/24 06:02:20;;;;;;;9.32;1.48;;;13.80;99.90;;;;;;5014586;28;20045;-61
2022/09/24 06:04:45;;;;;;;6.85;1.92;;;13.80;99.90;;;;;;5011853;28;20485;-61
2022/09/24 06:07:11;;;;;;;6.68;2.28;;;13.80;99.90;;;;;;5010694;28;20099;-61
2022/09/24 06:09:37;;;;;;;7.22;1.27;;;13.70;99.90;;;;;;5018991;28;20073;-61
2022/09/24 06:12:02;;;;;;;9.55;1.85;;;13.80;99.90;;;;;;5035717;28;20037;-61
2022/09/24 06:14:28;;;;;;;5.30;1.40;;;13.80;99.90;;;;;;5013396;28;20462;-61
2022/09/24 06:16:55;;;;;;;6.03;1.73;;;13.80;99.90;;;;;;5017774;28;20080;-61
2022/09/24 06:19:22;;;;;;;7.00;1.35;;;13.80;99.90;;;;;;4984639;28;20056;-62
2022/09/24 06:21:47;;;;;;;6.32;1.35;;;13.80;99.90;;;;;;4999682;28;20395;-61
2022/09/24 06:24:14;;;;;;;5.70;1.50;;;13.90;99.90;;;;;;5002631;28;20033;-61
2022/09/24 06:26:40;;;;;;;5.72;1.23;;;13.90;99.90;;;;;;5006511;28;20045;-61
2022/09/24 06:29:06;;;;;;;9.23;1.85;;;13.90;99.90;;;;;;4986770;28;20043;-61
2022/09/24 06:31:33;;;;;;;12.30;1.88;;;14.00;99.90;;;;;;5007654;28;21286;-61
2022/09/24 06:33:59;;;;;;;9.27;1.88;;;14.00;99.90;;;;;;5004281;28;20500;-61
2022/09/24 06:36:25;;;;;;;9.57;1.70;;;14.00;99.90;;;;;;5008345;28;20073;-62
2022/09/24 06:38:51;;;;;;;11.45;1.88;;;14.00;99.90;;;;;;4998427;28;20185;-61
2022/09/24 06:43:53;;;;;;;14.40;2.00;;;14.00;99.90;;;;;;5016459;28;20053;-59
2022/09/24 06:46:19;;;;;;;9.98;1.88;;;14.10;99.90;;;;;;5000053;28;20045;-57
2022/09/24 06:48:47;;;;;;;9.48;2.25;;;14.10;99.90;;;;;;5017058;28;20435;-60
2022/09/24 06:51:13;;;;;;;11.07;1.50;;;14.10;99.90;;;;;;5018008;28;21084;-60
2022/09/24 06:53:39;;;;;;;9.68;1.60;;;14.20;99.90;;;;;;5019292;28;20060;-60
2022/09/24 06:56:05;;;;;;;11.95;1.98;;;14.20;99.90;;;;;;4998162;28;20096;-58
2022/09/24 06:58:32;;;;;;;10.75;1.80;;;14.20;99.90;;;;;;4992404;28;20084;-59
2022/09/24 07:01:02;;;;;;;9.13;2.33;;;14.20;99.90;;;;;;5025172;28;20101;-60
2022/09/24 07:03:31;;;;;;;10.32;1.63;;;14.30;99.90;;;;;;5020230;28;20088;-60
2022/09/24 07:06:02;;;;;;;9.45;1.83;;;14.30;99.90;;;;;;5024965;28;20035;-60
2022/09/24 07:08:28;;;;;;;8.13;1.80;;;14.30;99.90;;;;;;4983299;28;20095;-60
2022/09/24 07:10:54;;;;;;;6.47;1.92;;;14.30;99.90;;;;;;5012404;28;20041;-59
2022/09/24 07:13:22;;;;;;;6.32;2.03;;;14.40;99.90;;;;;;5007333;28;20037;-58
2022/09/24 07:15:50;;;;;;;9.02;2.45;;;14.40;99.90;;;;;;5006142;28;20111;-58
2022/09/24 07:18:16;;;;;;;12.88;2.08;;;14.40;99.90;;;;;;4997860;28;20044;-60
2022/09/24 07:20:43;;;;;;;10.20;1.90;;;14.50;99.90;;;;;;4989414;28;20037;-61
2022/09/24 07:23:10;;;;;;;8.30;1.50;;;14.50;99.90;;;;;;5003267;28;20042;-58
2022/09/24 07:25:36;;;;;;;7.68;1.63;;;14.50;99.90;;;;;;4993130;28;20046;-59
2022/09/24 07:28:09;;;;;;;8.98;1.95;;;14.60;99.90;;;;;;4983118;28;20048;-60
2022/09/24 07:30:35;;;;;;;9.73;2.03;;;14.60;99.90;;;;;;4995864;28;20149;-61
2022/09/24 07:33:01;;;;;;;10.48;2.05;;;14.70;99.90;;;;;;4991964;28;20542;-60
2022/09/24 07:35:28;;;;;;;11.77;1.80;;;14.70;99.90;;;;;;4991852;28;20041;-59
2022/09/24 07:38:01;;;;;;;12.20;1.75;;;14.70;99.90;;;;;;4999084;28;20753;-58
2022/09/24 07:40:28;;;;;;;11.10;2.15;;;14.80;99.90;;;;;;4992817;28;20041;-59
2022/09/24 07:42:55;;;;;;;10.18;1.42;;;14.80;99.90;;;;;;5006653;28;20480;-60
2022/09/24 07:45:22;;;;;;;9.73;3.30;;;14.80;99.90;;;;;;4980126;28;20428;-59
2022/09/24 07:47:59;;;;;;;8.25;1.60;;;14.90;99.90;;;;;;5022379;28;20045;-59
2022/09/24 07:50:26;;;;;;;13.93;2.42;;;14.90;99.90;;;;;;5021358;28;20113;-60
2022/09/24 07:52:52;;;;;;;11.57;2.42;;;14.90;99.90;;;;;;5003870;28;20484;-60
2022/09/24 07:55:18;;;;;;;12.07;2.03;;;15.00;99.90;;;;;;5016476;28;20079;-61
2022/09/24 07:57:52;;;;;;;6.45;2.03;;;15.00;99.90;;;;;;5003946;28;20624;-61
2022/09/24 08:00:20;;;;;;;11.43;2.03;;;15.10;99.90;;;;;;5024460;28;20132;-58
2022/09/24 08:02:46;;;;;;;12.00;2.55;;;15.10;99.90;;;;;;5014832;28;20041;-60
2022/09/24 08:05:14;;;;;;;9.93;1.80;;;15.10;99.90;;;;;;5008507;28;20061;-61
2022/09/24 08:07:40;;;;;;;10.45;2.08;;;15.10;99.90;;;;;;5012189;28;20065;-59
2022/09/24 08:10:07;;;;;;;11.88;2.20;;;15.10;99.90;;;;;;5006749;28;20048;-61
2022/09/24 08:12:33;;;;;;;7.95;1.80;;;15.20;99.90;;;;;;5004534;28;20045;-60
2022/09/24 08:14:59;;;;;;;7.57;1.67;;;15.20;99.90;;;;;;4986218;28;20048;-61
2022/09/24 08:17:25;;;;;;;11.88;2.15;;;15.20;99.90;;;;;;5010050;28;20408;-60
2022/09/24 08:19:55;;;;;;;8.77;1.50;;;15.20;99.90;;;;;;4993729;28;20815;-61
2022/09/24 08:22:22;;;;;;;5.82;1.52;;;15.20;99.90;;;;;;5011770;28;20897;-60
2022/09/24 08:24:48;;;;;;;10.25;1.60;;;15.20;99.90;;;;;;4986027;28;20050;-61
2022/09/24 08:27:13;;;;;;;11.73;1.80;;;15.20;99.90;;;;;;4991573;28;20042;-61
2022/09/24 08:29:39;;;;;;;7.43;1.35;;;15.20;99.90;;;;;;5005844;28;20033;-61
2022/09/24 08:32:05;;;;;;;5.40;1.67;;;15.30;99.90;;;;;;4986997;28;20061;-60
2022/09/24 08:34:37;;;;;;;10.40;2.15;;;15.30;99.90;;;;;;5011216;28;20038;-60
2022/09/24 08:37:04;;;;;;;9.57;1.95;;;15.30;99.90;;;;;;5018443;28;20135;-59
2022/09/24 08:39:32;;;;;;;13.05;2.10;;;15.30;99.90;;;;;;4975153;28;20041;-60
2022/09/24 08:42:22;;;;;;;9.23;2.25;;;15.30;99.90;;;;;;4999122;28;20030;-61
2022/09/24 08:47:47;;;;;;;11.02;1.60;;;15.30;99.90;;;;;;5022280;28;20388;-61
2022/09/24 08:50:19;;;;;;;9.88;1.50;;;15.30;99.90;;;;;;4991329;28;20096;-61
2022/09/24 08:53:24;;;;;;;8.48;1.83;;;15.20;99.90;;;;;;5018332;28;20045;-59
2022/09/24 08:55:54;;;;;;;11.43;1.65;;;15.20;99.90;;;;;;4999320;28;20404;-61
2022/09/24 08:58:33;;;;;;;9.93;2.40;;;15.20;99.90;;;;;;5019993;28;20130;-61
2022/09/24 09:01:11;;;;;;;11.07;2.25;;;15.30;99.90;;;;;;4988020;28;20045;-61
2022/09/24 09:04:02;;;;;;;14.25;1.83;;;15.30;99.90;;;;;;5024502;28;20045;-59
2022/09/24 09:07:00;;;;;;;13.90;1.90;;;15.30;99.90;;;;;;5002831;28;20488;-60
2022/09/24 09:09:41;;;;;;;8.23;2.03;;;15.40;99.90;;;;;;4988044;28;20033;-60
2022/09/24 09:12:14;;;;;;;14.35;2.42;;;15.50;99.90;;;;;;5011622;28;20042;-61
2022/09/24 09:15:04;;;;;;;12.95;2.15;;;15.50;99.90;;;;;;4999099;28;20045;-61
2022/09/24 09:17:44;;;;;;;11.85;2.40;;;15.60;99.90;;;;;;4983092;28;20038;-60
2022/09/24 09:20:16;;;;;;;9.48;1.83;;;15.60;99.90;;;;;;4998294;28;20046;-60
2022/09/24 09:22:46;;;;;;;11.98;2.13;;;15.60;99.90;;;;;;5006190;28;20048;-61
2022/09/24 09:25:23;;;;;;;15.75;2.60;;;15.60;99.90;;;;;;5004017;28;20037;-60
2022/09/24 09:27:52;;;;;;;10.65;2.50;;;15.50;99.90;;;;;;4986048;28;20034;-61
2022/09/24 09:30:20;;;;;;;11.88;2.05;;;15.50;99.90;;;;;;4999621;28;20038;-60
2022/09/24 09:33:20;;;;;;;10.77;1.67;;;15.50;99.90;;;;;;5008863;28;20251;-60
2022/09/24 09:36:34;;;;;;;12.80;2.15;;;15.50;99.90;;;;;;4979395;28;20045;-59
2022/09/24 09:39:36;;;;;;;8.32;1.98;;;15.50;99.90;;;;;;5007185;28;20045;-61
2022/09/24 09:42:17;;;;;;;12.30;2.10;;;15.30;99.90;;;;;;4990593;28;20045;-61
2022/09/24 09:44:44;;;;;;;8.80;2.47;;;15.40;99.90;;;;;;4994200;28;20045;-59
2022/09/24 09:47:23;;;;;;;11.15;2.05;;;15.50;99.90;;;;;;5007888;28;20048;-61
2022/09/24 09:49:52;;;;;;;10.95;2.50;;;15.50;99.90;;;;;;4993744;28;20485;-61
2022/09/24 09:52:20;;;;;;;12.52;2.60;;;15.50;99.90;;;;;;5005271;28;20053;-59
2022/09/24 09:54:47;;;;;;;10.25;2.33;;;15.40;99.90;;;;;;5011127;28;20041;-58
2022/09/24 09:57:22;;;;;;;11.85;1.75;;;15.40;99.90;;;;;;5015990;28;20053;-62
2022/09/24 09:59:51;;;;;;;14.77;2.20;;;15.40;99.90;;;;;;5010681;28;20042;-61
2022/09/24 10:02:39;;;;;;;6.65;1.42;;;15.40;99.90;;;;;;5006532;28;20065;-61
2022/09/24 10:05:16;;;;;;;12.82;2.20;;;15.40;99.90;;;;;;4976155;28;20049;-59
2022/09/24 10:07:44;;;;;;;12.52;2.60;;;15.40;99.90;;;;;;5012371;28;20212;-61
2022/09/24 10:10:19;;;;;;;8.35;2.15;;;15.40;99.90;;;;;;4991521;28;20049;-61
2022/09/24 10:12:46;;;;;;;11.60;2.20;;;15.40;99.90;;;;;;5012376;28;20431;-61
2022/09/24 10:15:14;;;;;;;13.93;2.17;;;15.50;99.90;;;;;;5016508;28;20128;-61
2022/09/24 10:17:42;;;;;;;12.50;2.40;;;15.50;99.90;;;;;;5015870;28;20045;-61
2022/09/24 10:20:31;;;;;;;7.10;1.60;;;15.50;99.90;;;;;;5010729;28;20358;-60
2022/09/24 10:23:07;;;;;;;11.68;1.85;;;15.50;99.90;;;;;;4991753;28;20038;-61
2022/09/24 10:25:35;;;;;;;13.05;2.45;;;15.50;99.90;;;;;;4988605;28;20054;-60
2022/09/24 10:31:02;;;;;;;10.07;1.90;;;15.50;99.90;;;;;;5008433;28;20128;-60
2022/09/24 10:33:39;;;;;;;12.40;2.33;;;15.50;99.90;;;;;;5002570;28;20474;-61
2022/09/24 10:36:23;;;;;;;14.73;2.88;;;15.50;99.90;;;;;;5014364;28;20062;-61
2022/09/24 10:39:03;;;;;;;13.82;2.53;;;15.40;99.90;;;;;;5020382;28;20389;-61
2022/09/24 10:41:30;;;;;;;7.22;1.60;;;15.40;99.90;;;;;;4990810;28;20358;-61
2022/09/24 10:44:03;;;;;;;12.82;2.42;;;15.40;99.90;;;;;;5018635;28;20681;-61
2022/09/24 10:47:03;;;;;;;9.30;1.83;;;15.40;99.90;;;;;;4999538;28;20053;-61
2022/09/24 10:50:11;;;;;;;10.50;2.53;;;15.40;99.90;;;;;;4987528;28;20046;-61
2022/09/24 10:52:58;;;;;;;9.10;2.15;;;15.40;99.90;;;;;;5000073;28;20092;-59
2022/09/24 10:56:00;;;;;;;12.60;2.45;;;15.50;99.90;;;;;;5021670;28;20288;-62
2022/09/24 10:59:25;;;;;;;7.22;1.55;;;15.70;99.90;;;;;;5015980;28;20287;-61
2022/09/24 11:02:08;;;;;;;7.68;1.63;;;15.70;99.90;;;;;;4904082;29;20130;-61
2022/09/24 11:05:01;;;;;;;9.45;1.55;;;15.80;99.90;;;;;;4918046;29;20147;-60
2022/09/24 11:07:49;;;;;;;11.10;2.00;;;15.80;99.90;;;;;;4977675;28;20465;-59
2022/09/24 11:10:21;;;;;;;11.48;1.80;;;15.90;99.90;;;;;;5012115;28;20127;-59
2022/09/24 11:13:06;;;;;;;5.03;1.40;;;15.90;99.90;;;;;;5009994;28;20042;-59
2022/09/24 11:16:19;;;;;;;9.77;1.40;;;16.10;99.90;;;;;;5007195;28;20065;-62
2022/09/24 11:19:22;;;;;;;7.97;1.38;;;16.10;99.90;;;;;;4875855;29;20115;-61
2022/09/24 11:21:58;;;;;;;9.23;1.17;;;16.20;99.90;;;;;;4859130;29;20736;-60
2022/09/24 11:24:53;;;;;;;11.10;1.48;;;16.20;99.90;;;;;;4965880;28;20053;-60
2022/09/24 11:27:56;;;;;;;9.98;1.38;;;16.30;99.90;;;;;;5006386;28;20049;-61
2022/09/24 11:30:27;;;;;;;7.88;1.60;;;16.40;99.90;;;;;;5007236;28;20417;-61
2022/09/24 11:33:15;;;;;;;8.27;1.40;;;16.40;99.90;;;;;;5012927;28;20041;-61
2022/09/24 11:36:14;;;;;;;9.70;1.17;;;16.40;99.90;;;;;;4993598;28;20140;-61
2022/09/24 11:38:56;;;;;;;8.40;1.33;;;16.30;99.90;;;;;;4989884;28;20057;-60
2022/09/24 11:41:31;;;;;;;7.70;1.70;;;16.30;99.90;;;;;;5004166;28;20050;-62
2022/09/24 11:44:20;;;;;;;7.03;1.40;;;16.20;99.90;;;;;;4996978;28;20485;-62
2022/09/24 11:47:24;;;;;;;7.82;1.55;;;16.20;99.90;;;;;;5019109;28;20546;-62
2022/09/24 11:50:12;;;;;;;8.52;1.42;;;16.10;99.90;;;;;;5022452;28;20393;-60
2022/09/24 11:52:55;;;;;;;10.00;1.67;;;16.10;99.90;;;;;;5023497;28;20404;-61
2022/09/24 11:55:33;;;;;;;6.38;1.95;;;16.10;99.90;;;;;;5027468;28;20080;-61
2022/09/24 11:58:15;;;;;;;9.60;1.75;;;16.10;99.90;;;;;;5005900;28;20037;-60
2022/09/24 12:01:17;;;;;;;9.98;1.40;;;16.10;99.90;;;;;;5003449;28;20112;-61
2022/09/24 12:04:29;;;;;;;6.53;1.77;;;16.20;99.90;;;;;;5017646;28;20400;-61
2022/09/24 12:07:12;;;;;;;12.60;1.85;;;16.20;99.90;;;;;;4975060;28;20057;-61
2022/09/24 12:09:49;;;;;;;8.07;1.55;;;16.20;99.90;;;;;;5002805;28;20048;-60
2022/09/24 12:12:30;;;;;;;6.40;1.30;;;16.10;99.90;;;;;;5025032;28;20110;-61
2022/09/24 12:15:07;;;;;;;11.82;1.38;;;16.20;99.90;;;;;;5008393;28;20056;-60
2022/09/24 12:17:44;;;;;;;8.38;1.48;;;16.20;99.90;;;;;;5010276;28;20438;-61
2022/09/24 12:20:21;;;;;;;5.82;1.30;;;16.20;99.90;;;;;;5008595;28;20431;-62
2022/09/24 12:22:54;;;;;;;8.38;1.55;;;16.10;99.90;;;;;;5011518;28;20037;-62
2022/09/24 12:25:20;;;;;;;9.45;1.35;;;16.00;99.90;;;;;;5004674;28;20124;-62
2022/09/24 12:27:47;;;;;;;6.85;1.20;;;15.90;99.90;;;;;;4991492;28;20038;-62
2022/09/24 12:33:33;;;;;;;5.57;1.38;;;15.90;99.90;;;;;;5008882;28;20046;-61
2022/09/24 12:36:05;;;;;;;7.95;1.55;;;16.00;99.90;;;;;;5007292;28;20440;-62
2022/09/24 12:38:39;;;;;;;9.32;2.47;;;16.10;99.90;;;;;;5030713;28;20063;-62
2022/09/24 12:41:17;;;;;;;6.68;1.40;;;16.10;99.90;;;;;;5030758;28;20061;-62
2022/09/24 12:44:02;;;;;;;10.73;1.60;;;16.20;99.90;;;;;;5056307;22;20063;-64
2022/09/24 12:46:33;;;;;;;6.75;1.27;;;16.20;99.90;;;;;;5060422;28;20052;-62
2022/09/24 12:49:00;;;;;;;8.90;2.13;;;16.20;99.90;;;;;;5059276;28;20032;-63
2022/09/24 12:51:37;;;;;;;6.40;1.35;;;16.10;99.90;;;;;;5046876;28;20036;-62
2022/09/24 12:54:16;;;;;;;10.38;1.52;;;16.10;99.90;;;;;;5024813;28;20037;-62
2022/09/24 12:56:43;;;;;;;6.93;1.42;;;16.10;99.90;;;;;;5040455;28;20033;-62
2022/09/24 12:59:26;;;;;;;9.80;1.50;;;16.10;99.90;;;;;;5041549;28;20045;-63
2022/09/24 13:01:53;;;;;;;7.85;1.20;;;16.20;99.90;;;;;;5047245;28;20123;-62
2022/09/24 13:04:18;;;;;;;7.28;1.90;;;16.20;99.90;;;;;;5043985;28;20041;-63
2022/09/24 13:06:47;;;;;;;9.15;1.42;;;16.20;99.90;;;;;;5027711;28;20486;-63
2022/09/24 13:09:34;;;;;;;4.70;1.13;;;16.20;99.90;;;;;;5030530;28;20040;-63
2022/09/24 13:12:13;;;;;;;7.85;1.40;;;16.20;99.90;;;;;;5032735;28;20048;-63
2022/09/24 13:14:42;;;;;;;6.70;1.15;;;16.30;99.90;;;;;;5016108;28;20091;-62
2022/09/24 13:17:08;;;;;;;8.27;1.33;;;16.30;99.90;;;;;;5013214;28;20053;-62
2022/09/24 13:19:41;;;;;;;10.20;1.40;;;16.40;99.90;;;;;;5031587;28;20686;-63
2022/09/24 13:22:36;;;;;;;8.07;1.48;;;16.50;99.90;;;;;;5028823;28;20552;-62
2022/09/24 13:25:08;;;;;;;11.32;1.67;;;16.80;99.90;;;;;;5007385;28;20045;-62